Terminal Aerodrome Forecast
Issued by NWS

Home | Current Version | Previous Version | Text Only | Print | Product List | Glossary On
Versions: 1 2 3 4 5 6 7 8 9 10 11 12 13 14 15 16
000
FTUS45 KRIW 270500
TAFCPR
TAF
KCPR 270531Z 2706/2806 01010KT 2SM -RASN BR OVC005
     FM271800 02010KT P6SM VCSH OVC015
     FM272200 05007KT P6SM SCT025 BKN035
     FM280300 05008KT P6SM VCFG SCT005 BKN015=

USA.gov is the U.S. government's official web portal to all federal, state and local government web resources and services.